sensor_id;sensor_type;location;lat;lon;timestamp;P1;durP1;ratioP1;P2;durP2;ratioP2
42200;SDS011;27869;51.442;7.540;2022-07-23T00:01:36;19.42;;;8.32;;
42200;SDS011;27869;51.442;7.540;2022-07-23T00:04:03;18.88;;;8.40;;
42200;SDS011;27869;51.442;7.540;2022-07-23T00:06:30;18.38;;;8.50;;
42200;SDS011;27869;51.442;7.540;2022-07-23T00:08:57;18.77;;;8.88;;
42200;SDS011;27869;51.442;7.540;2022-07-23T00:11:24;22.77;;;8.07;;
42200;SDS011;27869;51.442;7.540;2022-07-23T00:13:51;20.05;;;9.07;;
42200;SDS011;27869;51.442;7.540;2022-07-23T00:16:21;20.35;;;8.18;;
42200;SDS011;27869;51.442;7.540;2022-07-23T00:18:48;23.30;;;9.15;;
42200;SDS011;27869;51.442;7.540;2022-07-23T00:21:15;20.58;;;9.63;;
42200;SDS011;27869;51.442;7.540;2022-07-23T00:23:42;21.95;;;8.50;;
42200;SDS011;27869;51.442;7.540;2022-07-23T00:26:09;23.13;;;9.55;;
42200;SDS011;27869;51.442;7.540;2022-07-23T00:28:35;20.35;;;8.95;;
42200;SDS011;27869;51.442;7.540;2022-07-23T00:31:02;22.17;;;8.45;;
42200;SDS011;27869;51.442;7.540;2022-07-23T00:33:31;20.80;;;9.70;;
42200;SDS011;27869;51.442;7.540;2022-07-23T00:35:58;22.13;;;9.02;;
42200;SDS011;27869;51.442;7.540;2022-07-23T00:38:25;22.48;;;8.80;;
42200;SDS011;27869;51.442;7.540;2022-07-23T00:40:52;21.92;;;9.15;;
42200;SDS011;27869;51.442;7.540;2022-07-23T00:43:19;23.33;;;9.18;;
42200;SDS011;27869;51.442;7.540;2022-07-23T00:45:47;20.98;;;9.27;;
42200;SDS011;27869;51.442;7.540;2022-07-23T00:48:14;23.38;;;8.48;;
42200;SDS011;27869;51.442;7.540;2022-07-23T00:50:42;23.17;;;9.13;;
42200;SDS011;27869;51.442;7.540;2022-07-23T00:53:09;19.85;;;9.38;;
42200;SDS011;27869;51.442;7.540;2022-07-23T00:55:37;21.05;;;9.57;;
42200;SDS011;27869;51.442;7.540;2022-07-23T00:58:04;20.48;;;9.10;;
42200;SDS011;27869;51.442;7.540;2022-07-23T01:00:32;20.95;;;8.57;;
42200;SDS011;27869;51.442;7.540;2022-07-23T01:02:59;20.48;;;8.95;;
42200;SDS011;27869;51.442;7.540;2022-07-23T01:05:26;19.27;;;9.55;;
42200;SDS011;27869;51.442;7.540;2022-07-23T01:07:54;20.23;;;8.80;;
42200;SDS011;27869;51.442;7.540;2022-07-23T01:10:21;20.77;;;9.07;;
42200;SDS011;27869;51.442;7.540;2022-07-23T01:12:58;25.85;;;9.70;;
42200;SDS011;27869;51.442;7.540;2022-07-23T01:15:25;19.63;;;8.50;;
42200;SDS011;27869;51.442;7.540;2022-07-23T01:17:52;21.45;;;8.35;;
42200;SDS011;27869;51.442;7.540;2022-07-23T01:20:19;20.48;;;8.85;;
42200;SDS011;27869;51.442;7.540;2022-07-23T01:22:48;20.50;;;9.38;;
42200;SDS011;27869;51.442;7.540;2022-07-23T01:25:15;21.55;;;8.93;;
42200;SDS011;27869;51.442;7.540;2022-07-23T01:27:42;19.85;;;9.20;;
42200;SDS011;27869;51.442;7.540;2022-07-23T01:30:09;20.30;;;8.30;;
42200;SDS011;27869;51.442;7.540;2022-07-23T01:32:37;22.90;;;9.13;;
42200;SDS011;27869;51.442;7.540;2022-07-23T01:35:04;18.83;;;7.43;;
42200;SDS011;27869;51.442;7.540;2022-07-23T01:37:33;20.27;;;8.98;;
42200;SDS011;27869;51.442;7.540;2022-07-23T01:40:01;20.55;;;9.18;;
42200;SDS011;27869;51.442;7.540;2022-07-23T01:42:29;20.90;;;9.52;;
42200;SDS011;27869;51.442;7.540;2022-07-23T01:44:56;24.58;;;10.90;;
42200;SDS011;27869;51.442;7.540;2022-07-23T01:47:23;20.50;;;9.13;;
42200;SDS011;27869;51.442;7.540;2022-07-23T01:49:50;25.70;;;11.45;;
42200;SDS011;27869;51.442;7.540;2022-07-23T01:52:17;23.63;;;10.10;;
42200;SDS011;27869;51.442;7.540;2022-07-23T01:54:44;20.08;;;9.23;;
42200;SDS011;27869;51.442;7.540;2022-07-23T01:57:12;20.15;;;8.38;;
42200;SDS011;27869;51.442;7.540;2022-07-23T01:59:39;19.15;;;8.82;;
42200;SDS011;27869;51.442;7.540;2022-07-23T02:02:06;22.35;;;10.15;;
42200;SDS011;27869;51.442;7.540;2022-07-23T02:04:33;22.38;;;10.30;;
42200;SDS011;27869;51.442;7.540;2022-07-23T02:07:01;22.27;;;10.27;;
42200;SDS011;27869;51.442;7.540;2022-07-23T02:09:29;21.65;;;10.02;;
42200;SDS011;27869;51.442;7.540;2022-07-23T02:11:57;23.05;;;9.88;;
42200;SDS011;27869;51.442;7.540;2022-07-23T02:14:25;23.27;;;9.63;;
42200;SDS011;27869;51.442;7.540;2022-07-23T02:16:52;21.67;;;10.32;;
42200;SDS011;27869;51.442;7.540;2022-07-23T02:19:19;20.13;;;9.65;;
42200;SDS011;27869;51.442;7.540;2022-07-23T02:21:46;21.73;;;10.25;;
42200;SDS011;27869;51.442;7.540;2022-07-23T02:24:13;20.23;;;9.60;;
42200;SDS011;27869;51.442;7.540;2022-07-23T02:26:41;23.58;;;9.85;;
42200;SDS011;27869;51.442;7.540;2022-07-23T02:29:08;29.25;;;10.30;;
42200;SDS011;27869;51.442;7.540;2022-07-23T02:31:37;24.30;;;10.93;;
42200;SDS011;27869;51.442;7.540;2022-07-23T02:34:03;22.05;;;10.10;;
42200;SDS011;27869;51.442;7.540;2022-07-23T02:36:31;19.88;;;9.90;;
42200;SDS011;27869;51.442;7.540;2022-07-23T02:38:58;19.67;;;9.27;;
42200;SDS011;27869;51.442;7.540;2022-07-23T02:41:25;21.40;;;9.98;;
42200;SDS011;27869;51.442;7.540;2022-07-23T02:43:51;24.02;;;11.23;;
42200;SDS011;27869;51.442;7.540;2022-07-23T02:46:18;24.15;;;11.85;;
42200;SDS011;27869;51.442;7.540;2022-07-23T02:48:47;28.58;;;11.80;;
42200;SDS011;27869;51.442;7.540;2022-07-23T02:51:14;24.80;;;10.82;;
42200;SDS011;27869;51.442;7.540;2022-07-23T02:53:40;24.65;;;11.32;;
42200;SDS011;27869;51.442;7.540;2022-07-23T02:56:08;24.48;;;9.43;;
42200;SDS011;27869;51.442;7.540;2022-07-23T02:58:35;20.45;;;9.80;;
42200;SDS011;27869;51.442;7.540;2022-07-23T03:01:02;22.48;;;10.70;;
42200;SDS011;27869;51.442;7.540;2022-07-23T03:03:29;23.67;;;10.82;;
42200;SDS011;27869;51.442;7.540;2022-07-23T03:05:57;23.67;;;11.25;;
42200;SDS011;27869;51.442;7.540;2022-07-23T03:08:24;25.35;;;11.20;;
42200;SDS011;27869;51.442;7.540;2022-07-23T03:10:51;24.95;;;10.45;;
42200;SDS011;27869;51.442;7.540;2022-07-23T03:13:18;24.15;;;10.40;;
42200;SDS011;27869;51.442;7.540;2022-07-23T03:15:45;23.27;;;9.93;;
42200;SDS011;27869;51.442;7.540;2022-07-23T03:18:12;24.17;;;11.25;;
42200;SDS011;27869;51.442;7.540;2022-07-23T03:20:39;23.02;;;9.52;;
42200;SDS011;27869;51.442;7.540;2022-07-23T03:23:07;25.50;;;10.65;;
42200;SDS011;27869;51.442;7.540;2022-07-23T03:25:34;22.88;;;9.68;;
42200;SDS011;27869;51.442;7.540;2022-07-23T03:28:01;21.92;;;10.63;;
42200;SDS011;27869;51.442;7.540;2022-07-23T03:30:28;25.23;;;10.00;;
42200;SDS011;27869;51.442;7.540;2022-07-23T03:32:55;21.05;;;9.00;;
42200;SDS011;27869;51.442;7.540;2022-07-23T03:35:22;20.50;;;8.93;;
42200;SDS011;27869;51.442;7.540;2022-07-23T03:37:49;19.75;;;9.00;;
42200;SDS011;27869;51.442;7.540;2022-07-23T03:40:17;23.40;;;10.00;;
42200;SDS011;27869;51.442;7.540;2022-07-23T03:42:44;23.13;;;9.32;;
42200;SDS011;27869;51.442;7.540;2022-07-23T03:45:11;23.00;;;9.52;;
42200;SDS011;27869;51.442;7.540;2022-07-23T03:47:38;22.35;;;11.27;;
42200;SDS011;27869;51.442;7.540;2022-07-23T03:50:05;17.77;;;8.55;;
42200;SDS011;27869;51.442;7.540;2022-07-23T03:52:32;22.02;;;10.00;;
42200;SDS011;27869;51.442;7.540;2022-07-23T03:55:00;23.77;;;9.60;;
42200;SDS011;27869;51.442;7.540;2022-07-23T03:57:28;21.15;;;9.80;;
42200;SDS011;27869;51.442;7.540;2022-07-23T03:59:55;20.50;;;10.13;;
42200;SDS011;27869;51.442;7.540;2022-07-23T04:02:22;23.30;;;11.15;;
42200;SDS011;27869;51.442;7.540;2022-07-23T04:04:50;23.38;;;10.77;;
42200;SDS011;27869;51.442;7.540;2022-07-23T04:07:17;22.83;;;10.93;;
42200;SDS011;27869;51.442;7.540;2022-07-23T04:09:44;23.77;;;10.05;;
42200;SDS011;27869;51.442;7.540;2022-07-23T04:12:11;24.63;;;10.60;;
42200;SDS011;27869;51.442;7.540;2022-07-23T04:14:39;22.95;;;10.90;;
42200;SDS011;27869;51.442;7.540;2022-07-23T04:17:06;23.48;;;11.57;;
42200;SDS011;27869;51.442;7.540;2022-07-23T04:19:33;28.40;;;12.60;;
42200;SDS011;27869;51.442;7.540;2022-07-23T04:22:04;24.95;;;11.68;;
42200;SDS011;27869;51.442;7.540;2022-07-23T04:24:32;27.38;;;12.35;;
42200;SDS011;27869;51.442;7.540;2022-07-23T04:26:59;28.88;;;13.05;;
42200;SDS011;27869;51.442;7.540;2022-07-23T04:29:26;24.95;;;11.32;;
42200;SDS011;27869;51.442;7.540;2022-07-23T04:31:54;37.80;;;11.95;;
42200;SDS011;27869;51.442;7.540;2022-07-23T04:34:21;33.47;;;12.70;;
42200;SDS011;27869;51.442;7.540;2022-07-23T04:36:49;24.80;;;12.05;;
42200;SDS011;27869;51.442;7.540;2022-07-23T04:39:16;27.25;;;12.38;;
42200;SDS011;27869;51.442;7.540;2022-07-23T04:41:42;26.73;;;11.45;;
42200;SDS011;27869;51.442;7.540;2022-07-23T04:44:09;23.08;;;12.25;;
42200;SDS011;27869;51.442;7.540;2022-07-23T04:46:36;23.45;;;12.57;;
42200;SDS011;27869;51.442;7.540;2022-07-23T04:49:04;32.35;;;13.75;;
42200;SDS011;27869;51.442;7.540;2022-07-23T04:51:31;31.63;;;12.57;;
42200;SDS011;27869;51.442;7.540;2022-07-23T04:53:58;35.42;;;13.05;;
42200;SDS011;27869;51.442;7.540;2022-07-23T04:56:25;33.83;;;13.55;;
42200;SDS011;27869;51.442;7.540;2022-07-23T04:58:52;43.83;;;13.50;;
42200;SDS011;27869;51.442;7.540;2022-07-23T05:01:19;30.27;;;13.82;;
42200;SDS011;27869;51.442;7.540;2022-07-23T05:03:46;26.95;;;13.60;;
42200;SDS011;27869;51.442;7.540;2022-07-23T05:06:15;28.40;;;13.77;;
42200;SDS011;27869;51.442;7.540;2022-07-23T05:08:42;30.92;;;13.43;;
42200;SDS011;27869;51.442;7.540;2022-07-23T05:11:09;26.27;;;13.07;;
42200;SDS011;27869;51.442;7.540;2022-07-23T05:13:36;36.25;;;15.13;;
42200;SDS011;27869;51.442;7.540;2022-07-23T05:16:03;30.27;;;14.02;;
42200;SDS011;27869;51.442;7.540;2022-07-23T05:18:30;37.85;;;14.30;;
42200;SDS011;27869;51.442;7.540;2022-07-23T05:20:57;30.65;;;13.80;;
42200;SDS011;27869;51.442;7.540;2022-07-23T05:23:25;38.28;;;13.35;;
42200;SDS011;27869;51.442;7.540;2022-07-23T05:25:52;36.45;;;12.50;;
42200;SDS011;27869;51.442;7.540;2022-07-23T05:28:19;32.08;;;14.23;;
42200;SDS011;27869;51.442;7.540;2022-07-23T05:30:46;27.42;;;14.63;;
42200;SDS011;27869;51.442;7.540;2022-07-23T05:33:13;30.13;;;14.02;;
42200;SDS011;27869;51.442;7.540;2022-07-23T05:35:40;26.73;;;13.45;;
42200;SDS011;27869;51.442;7.540;2022-07-23T05:38:07;29.10;;;13.20;;
42200;SDS011;27869;51.442;7.540;2022-07-23T05:40:35;31.10;;;14.15;;
42200;SDS011;27869;51.442;7.540;2022-07-23T05:43:02;26.17;;;13.55;;
42200;SDS011;27869;51.442;7.540;2022-07-23T05:45:29;27.58;;;13.93;;
42200;SDS011;27869;51.442;7.540;2022-07-23T05:47:55;29.83;;;13.70;;
42200;SDS011;27869;51.442;7.540;2022-07-23T05:50:22;25.02;;;13.50;;
42200;SDS011;27869;51.442;7.540;2022-07-23T05:52:49;28.02;;;14.15;;
42200;SDS011;27869;51.442;7.540;2022-07-23T05:55:16;28.33;;;14.75;;
42200;SDS011;27869;51.442;7.540;2022-07-23T05:57:44;27.17;;;14.00;;
42200;SDS011;27869;51.442;7.540;2022-07-23T06:00:12;25.20;;;13.90;;
42200;SDS011;27869;51.442;7.540;2022-07-23T06:02:39;26.88;;;14.10;;
42200;SDS011;27869;51.442;7.540;2022-07-23T06:05:06;27.73;;;14.75;;
42200;SDS011;27869;51.442;7.540;2022-07-23T06:07:34;29.27;;;15.02;;
42200;SDS011;27869;51.442;7.540;2022-07-23T06:10:01;27.05;;;14.07;;
42200;SDS011;27869;51.442;7.540;2022-07-23T06:12:29;29.60;;;14.13;;
42200;SDS011;27869;51.442;7.540;2022-07-23T06:14:57;27.52;;;13.77;;
42200;SDS011;27869;51.442;7.540;2022-07-23T06:17:24;28.38;;;14.77;;
42200;SDS011;27869;51.442;7.540;2022-07-23T06:19:51;28.52;;;14.15;;
42200;SDS011;27869;51.442;7.540;2022-07-23T06:22:18;26.95;;;15.10;;
42200;SDS011;27869;51.442;7.540;2022-07-23T06:24:45;28.10;;;14.68;;
42200;SDS011;27869;51.442;7.540;2022-07-23T06:27:12;26.60;;;13.80;;
42200;SDS011;27869;51.442;7.540;2022-07-23T06:29:39;28.83;;;14.88;;
42200;SDS011;27869;51.442;7.540;2022-07-23T06:32:07;26.58;;;13.50;;
42200;SDS011;27869;51.442;7.540;2022-07-23T06:34:35;28.00;;;14.25;;
42200;SDS011;27869;51.442;7.540;2022-07-23T06:37:02;29.73;;;12.95;;
42200;SDS011;27869;51.442;7.540;2022-07-23T06:39:29;22.55;;;11.70;;
42200;SDS011;27869;51.442;7.540;2022-07-23T06:41:56;27.05;;;13.95;;
42200;SDS011;27869;51.442;7.540;2022-07-23T06:44:23;25.17;;;13.60;;
42200;SDS011;27869;51.442;7.540;2022-07-23T06:46:49;29.17;;;12.60;;
42200;SDS011;27869;51.442;7.540;2022-07-23T06:49:18;28.60;;;13.30;;
42200;SDS011;27869;51.442;7.540;2022-07-23T06:51:45;25.45;;;13.15;;
42200;SDS011;27869;51.442;7.540;2022-07-23T06:54:12;25.55;;;13.35;;
42200;SDS011;27869;51.442;7.540;2022-07-23T06:56:39;25.92;;;12.95;;
42200;SDS011;27869;51.442;7.540;2022-07-23T06:59:06;24.90;;;13.00;;
42200;SDS011;27869;51.442;7.540;2022-07-23T07:01:33;28.05;;;13.88;;
42200;SDS011;27869;51.442;7.540;2022-07-23T07:04:00;26.77;;;13.40;;
42200;SDS011;27869;51.442;7.540;2022-07-23T07:06:28;27.42;;;13.40;;
42200;SDS011;27869;51.442;7.540;2022-07-23T07:08:55;24.88;;;12.52;;
42200;SDS011;27869;51.442;7.540;2022-07-23T07:11:22;24.15;;;12.02;;
42200;SDS011;27869;51.442;7.540;2022-07-23T07:13:50;24.88;;;11.93;;
42200;SDS011;27869;51.442;7.540;2022-07-23T07:16:17;29.40;;;13.65;;
42200;SDS011;27869;51.442;7.540;2022-07-23T07:18:44;26.25;;;13.70;;
42200;SDS011;27869;51.442;7.540;2022-07-23T07:21:11;25.92;;;13.18;;
42200;SDS011;27869;51.442;7.540;2022-07-23T07:23:39;26.30;;;13.25;;
42200;SDS011;27869;51.442;7.540;2022-07-23T07:26:07;25.13;;;13.38;;
42200;SDS011;27869;51.442;7.540;2022-07-23T07:28:33;26.20;;;14.05;;
42200;SDS011;27869;51.442;7.540;2022-07-23T07:31:00;27.75;;;13.85;;
42200;SDS011;27869;51.442;7.540;2022-07-23T07:33:27;26.35;;;12.40;;
42200;SDS011;27869;51.442;7.540;2022-07-23T07:35:54;26.90;;;13.50;;
42200;SDS011;27869;51.442;7.540;2022-07-23T07:38:21;26.73;;;13.80;;
42200;SDS011;27869;51.442;7.540;2022-07-23T07:40:50;24.40;;;13.02;;
42200;SDS011;27869;51.442;7.540;2022-07-23T07:43:17;26.60;;;13.50;;
42200;SDS011;27869;51.442;7.540;2022-07-23T07:45:44;27.83;;;15.20;;
42200;SDS011;27869;51.442;7.540;2022-07-23T07:48:11;29.25;;;15.98;;
42200;SDS011;27869;51.442;7.540;2022-07-23T07:50:38;30.15;;;17.15;;
42200;SDS011;27869;51.442;7.540;2022-07-23T07:53:04;37.22;;;19.40;;
42200;SDS011;27869;51.442;7.540;2022-07-23T07:55:31;37.58;;;21.02;;
42200;SDS011;27869;51.442;7.540;2022-07-23T07:58:00;38.88;;;20.83;;
42200;SDS011;27869;51.442;7.540;2022-07-23T08:00:27;36.22;;;18.65;;
42200;SDS011;27869;51.442;7.540;2022-07-23T08:02:54;37.85;;;19.75;;
42200;SDS011;27869;51.442;7.540;2022-07-23T08:05:21;36.42;;;18.73;;
42200;SDS011;27869;51.442;7.540;2022-07-23T08:10:17;43.20;;;23.27;;
42200;SDS011;27869;51.442;7.540;2022-07-23T08:12:45;40.33;;;23.42;;
42200;SDS011;27869;51.442;7.540;2022-07-23T08:15:15;42.85;;;24.65;;
42200;SDS011;27869;51.442;7.540;2022-07-23T08:17:43;43.72;;;25.20;;
42200;SDS011;27869;51.442;7.540;2022-07-23T08:20:11;43.45;;;25.00;;
42200;SDS011;27869;51.442;7.540;2022-07-23T08:22:43;41.92;;;25.30;;
42200;SDS011;27869;51.442;7.540;2022-07-23T08:25:12;46.72;;;25.10;;
42200;SDS011;27869;51.442;7.540;2022-07-23T08:27:39;43.25;;;25.25;;
42200;SDS011;27869;51.442;7.540;2022-07-23T08:30:06;41.17;;;25.70;;
42200;SDS011;27869;51.442;7.540;2022-07-23T08:32:48;42.05;;;24.60;;
42200;SDS011;27869;51.442;7.540;2022-07-23T08:35:21;40.88;;;23.90;;
42200;SDS011;27869;51.442;7.540;2022-07-23T08:37:50;39.17;;;22.40;;
42200;SDS011;27869;51.442;7.540;2022-07-23T08:40:18;37.65;;;22.17;;
42200;SDS011;27869;51.442;7.540;2022-07-23T08:42:46;38.55;;;22.13;;
42200;SDS011;27869;51.442;7.540;2022-07-23T08:47:42;34.65;;;21.38;;
42200;SDS011;27869;51.442;7.540;2022-07-23T08:50:11;36.38;;;21.08;;
42200;SDS011;27869;51.442;7.540;2022-07-23T08:52:38;36.10;;;21.20;;
42200;SDS011;27869;51.442;7.540;2022-07-23T08:55:07;32.45;;;22.00;;
42200;SDS011;27869;51.442;7.540;2022-07-23T08:57:34;35.95;;;21.83;;
42200;SDS011;27869;51.442;7.540;2022-07-23T09:00:01;35.20;;;22.30;;
42200;SDS011;27869;51.442;7.540;2022-07-23T09:02:30;35.83;;;21.42;;
42200;SDS011;27869;51.442;7.540;2022-07-23T09:04:57;32.88;;;22.33;;
42200;SDS011;27869;51.442;7.540;2022-07-23T09:07:25;34.13;;;21.27;;
42200;SDS011;27869;51.442;7.540;2022-07-23T09:10:04;30.90;;;19.30;;
42200;SDS011;27869;51.442;7.540;2022-07-23T09:12:33;29.13;;;17.85;;
42200;SDS011;27869;51.442;7.540;2022-07-23T09:15:03;29.13;;;18.23;;
42200;SDS011;27869;51.442;7.540;2022-07-23T09:17:36;24.08;;;15.45;;
42200;SDS011;27869;51.442;7.540;2022-07-23T09:20:08;24.58;;;15.25;;
42200;SDS011;27869;51.442;7.540;2022-07-23T09:22:38;23.83;;;13.38;;
42200;SDS011;27869;51.442;7.540;2022-07-23T09:25:07;22.80;;;14.55;;
42200;SDS011;27869;51.442;7.540;2022-07-23T09:27:46;24.30;;;14.52;;
42200;SDS011;27869;51.442;7.540;2022-07-23T09:30:15;26.40;;;14.30;;
42200;SDS011;27869;51.442;7.540;2022-07-23T09:32:42;21.65;;;13.10;;
42200;SDS011;27869;51.442;7.540;2022-07-23T09:35:09;19.83;;;12.70;;
42200;SDS011;27869;51.442;7.540;2022-07-23T09:37:37;20.00;;;12.13;;
42200;SDS011;27869;51.442;7.540;2022-07-23T09:40:05;19.20;;;11.23;;
42200;SDS011;27869;51.442;7.540;2022-07-23T09:42:34;16.73;;;8.77;;
42200;SDS011;27869;51.442;7.540;2022-07-23T09:45:01;16.80;;;8.80;;
42200;SDS011;27869;51.442;7.540;2022-07-23T09:47:30;18.05;;;8.55;;
42200;SDS011;27869;51.442;7.540;2022-07-23T09:49:59;14.65;;;7.90;;
42200;SDS011;27869;51.442;7.540;2022-07-23T09:52:27;15.80;;;8.48;;
42200;SDS011;27869;51.442;7.540;2022-07-23T09:54:59;15.90;;;7.60;;
42200;SDS011;27869;51.442;7.540;2022-07-23T09:57:27;14.60;;;6.70;;
42200;SDS011;27869;51.442;7.540;2022-07-23T09:59:56;13.85;;;6.88;;
42200;SDS011;27869;51.442;7.540;2022-07-23T10:02:27;14.88;;;7.95;;
42200;SDS011;27869;51.442;7.540;2022-07-23T10:04:57;16.25;;;7.53;;
42200;SDS011;27869;51.442;7.540;2022-07-23T10:07:25;15.13;;;7.45;;
42200;SDS011;27869;51.442;7.540;2022-07-23T10:09:55;15.20;;;7.55;;
42200;SDS011;27869;51.442;7.540;2022-07-23T10:12:24;16.33;;;7.88;;
42200;SDS011;27869;51.442;7.540;2022-07-23T10:17:37;14.07;;;6.15;;
42200;SDS011;27869;51.442;7.540;2022-07-23T10:20:04;12.95;;;5.38;;
42200;SDS011;27869;51.442;7.540;2022-07-23T10:22:33;13.40;;;4.55;;
42200;SDS011;27869;51.442;7.540;2022-07-23T10:25:08;12.70;;;4.00;;
42200;SDS011;27869;51.442;7.540;2022-07-23T10:27:47;10.55;;;3.40;;
42200;SDS011;27869;51.442;7.540;2022-07-23T10:30:31;12.95;;;4.60;;
42200;SDS011;27869;51.442;7.540;2022-07-23T10:33:20;10.13;;;3.42;;
42200;SDS011;27869;51.442;7.540;2022-07-23T10:35:59;10.02;;;3.25;;
42200;SDS011;27869;51.442;7.540;2022-07-23T10:38:35;10.82;;;3.50;;
42200;SDS011;27869;51.442;7.540;2022-07-23T10:41:09;11.30;;;3.90;;
42200;SDS011;27869;51.442;7.540;2022-07-23T10:43:37;11.38;;;3.90;;
42200;SDS011;27869;51.442;7.540;2022-07-23T10:46:20;11.43;;;4.28;;
42200;SDS011;27869;51.442;7.540;2022-07-23T10:54:45;11.13;;;3.90;;
42200;SDS011;27869;51.442;7.540;2022-07-23T10:57:15;9.73;;;3.55;;
42200;SDS011;27869;51.442;7.540;2022-07-23T11:02:46;13.85;;;4.22;;
42200;SDS011;27869;51.442;7.540;2022-07-23T11:05:14;12.10;;;3.80;;
42200;SDS011;27869;51.442;7.540;2022-07-23T11:13:01;9.75;;;3.80;;
42200;SDS011;27869;51.442;7.540;2022-07-23T11:16:04;9.43;;;3.67;;
42200;SDS011;27869;51.442;7.540;2022-07-23T11:18:59;10.23;;;3.35;;
42200;SDS011;27869;51.442;7.540;2022-07-23T11:21:48;10.88;;;3.70;;
42200;SDS011;27869;51.442;7.540;2022-07-23T11:26:49;11.90;;;3.53;;
42200;SDS011;27869;51.442;7.540;2022-07-23T11:32:21;10.60;;;4.00;;
42200;SDS011;27869;51.442;7.540;2022-07-23T11:35:00;9.52;;;3.38;;
42200;SDS011;27869;51.442;7.540;2022-07-23T11:39:59;11.13;;;2.67;;
42200;SDS011;27869;51.442;7.540;2022-07-23T11:42:27;11.13;;;3.60;;
42200;SDS011;27869;51.442;7.540;2022-07-23T11:44:53;9.98;;;3.60;;
42200;SDS011;27869;51.442;7.540;2022-07-23T11:47:23;10.57;;;3.08;;
42200;SDS011;27869;51.442;7.540;2022-07-23T11:49:54;8.52;;;2.97;;
42200;SDS011;27869;51.442;7.540;2022-07-23T11:52:22;12.05;;;4.30;;
42200;SDS011;27869;51.442;7.540;2022-07-23T11:54:51;10.98;;;3.90;;
42200;SDS011;27869;51.442;7.540;2022-07-23T11:57:20;9.75;;;3.83;;
42200;SDS011;27869;51.442;7.540;2022-07-23T11:59:52;10.30;;;4.10;;
42200;SDS011;27869;51.442;7.540;2022-07-23T12:02:22;11.27;;;4.15;;
42200;SDS011;27869;51.442;7.540;2022-07-23T12:04:50;10.82;;;3.85;;
42200;SDS011;27869;51.442;7.540;2022-07-23T12:07:24;9.18;;;3.40;;
42200;SDS011;27869;51.442;7.540;2022-07-23T12:09:52;10.38;;;3.70;;
42200;SDS011;27869;51.442;7.540;2022-07-23T12:12:20;11.02;;;3.40;;
42200;SDS011;27869;51.442;7.540;2022-07-23T12:14:48;9.70;;;3.55;;
42200;SDS011;27869;51.442;7.540;2022-07-23T12:17:17;11.85;;;4.35;;
42200;SDS011;27869;51.442;7.540;2022-07-23T12:19:45;10.93;;;4.30;;
42200;SDS011;27869;51.442;7.540;2022-07-23T12:22:13;10.75;;;3.90;;
42200;SDS011;27869;51.442;7.540;2022-07-23T12:24:53;11.52;;;3.50;;
42200;SDS011;27869;51.442;7.540;2022-07-23T12:29:48;9.20;;;3.40;;
42200;SDS011;27869;51.442;7.540;2022-07-23T12:32:22;10.68;;;3.55;;
42200;SDS011;27869;51.442;7.540;2022-07-23T12:35:01;10.23;;;3.40;;
42200;SDS011;27869;51.442;7.540;2022-07-23T12:37:30;8.48;;;2.90;;
42200;SDS011;27869;51.442;7.540;2022-07-23T12:43:02;9.55;;;3.10;;
42200;SDS011;27869;51.442;7.540;2022-07-23T12:48:23;6.78;;;2.25;;
42200;SDS011;27869;51.442;7.540;2022-07-23T12:50:54;7.25;;;2.40;;
42200;SDS011;27869;51.442;7.540;2022-07-23T12:53:26;10.63;;;2.80;;
42200;SDS011;27869;51.442;7.540;2022-07-23T12:55:58;8.57;;;2.70;;
42200;SDS011;27869;51.442;7.540;2022-07-23T12:58:38;6.68;;;2.10;;
42200;SDS011;27869;51.442;7.540;2022-07-23T13:01:07;8.35;;;2.50;;
42200;SDS011;27869;51.442;7.540;2022-07-23T13:03:35;8.57;;;2.45;;
42200;SDS011;27869;51.442;7.540;2022-07-23T13:06:06;6.88;;;2.20;;
42200;SDS011;27869;51.442;7.540;2022-07-23T13:08:34;9.15;;;2.72;;
42200;SDS011;27869;51.442;7.540;2022-07-23T13:11:03;7.00;;;2.60;;
42200;SDS011;27869;51.442;7.540;2022-07-23T13:13:32;9.73;;;2.35;;
42200;SDS011;27869;51.442;7.540;2022-07-23T13:16:00;9.25;;;2.80;;
42200;SDS011;27869;51.442;7.540;2022-07-23T13:18:28;7.93;;;2.40;;
42200;SDS011;27869;51.442;7.540;2022-07-23T13:20:55;7.60;;;2.60;;
42200;SDS011;27869;51.442;7.540;2022-07-23T13:23:24;8.05;;;2.45;;
42200;SDS011;27869;51.442;7.540;2022-07-23T13:25:51;7.15;;;2.30;;
42200;SDS011;27869;51.442;7.540;2022-07-23T13:28:19;6.47;;;2.20;;
42200;SDS011;27869;51.442;7.540;2022-07-23T13:30:48;10.20;;;2.10;;
42200;SDS011;27869;51.442;7.540;2022-07-23T13:35:43;8.43;;;2.20;;
42200;SDS011;27869;51.442;7.540;2022-07-23T13:38:10;12.45;;;2.60;;
42200;SDS011;27869;51.442;7.540;2022-07-23T13:40:39;7.90;;;2.50;;
42200;SDS011;27869;51.442;7.540;2022-07-23T13:43:08;9.15;;;2.40;;
42200;SDS011;27869;51.442;7.540;2022-07-23T13:45:36;8.45;;;2.45;;
42200;SDS011;27869;51.442;7.540;2022-07-23T13:48:03;5.47;;;1.90;;
42200;SDS011;27869;51.442;7.540;2022-07-23T13:50:31;7.72;;;2.35;;
42200;SDS011;27869;51.442;7.540;2022-07-23T13:53:00;8.32;;;2.05;;
42200;SDS011;27869;51.442;7.540;2022-07-23T13:55:27;7.28;;;2.08;;
42200;SDS011;27869;51.442;7.540;2022-07-23T13:57:56;7.07;;;2.15;;
42200;SDS011;27869;51.442;7.540;2022-07-23T14:00:23;8.32;;;1.90;;
42200;SDS011;27869;51.442;7.540;2022-07-23T14:02:50;9.38;;;2.30;;
42200;SDS011;27869;51.442;7.540;2022-07-23T14:05:17;7.13;;;2.08;;
42200;SDS011;27869;51.442;7.540;2022-07-23T14:07:44;8.00;;;2.28;;
42200;SDS011;27869;51.442;7.540;2022-07-23T14:10:12;8.30;;;2.30;;
42200;SDS011;27869;51.442;7.540;2022-07-23T14:12:39;9.68;;;2.33;;
42200;SDS011;27869;51.442;7.540;2022-07-23T14:15:08;7.20;;;2.53;;
42200;SDS011;27869;51.442;7.540;2022-07-23T14:17:36;7.82;;;2.33;;
42200;SDS011;27869;51.442;7.540;2022-07-23T14:20:06;6.63;;;2.15;;
42200;SDS011;27869;51.442;7.540;2022-07-23T14:22:34;7.90;;;2.08;;
42200;SDS011;27869;51.442;7.540;2022-07-23T14:25:01;6.68;;;1.92;;
42200;SDS011;27869;51.442;7.540;2022-07-23T14:27:28;8.60;;;2.40;;
42200;SDS011;27869;51.442;7.540;2022-07-23T14:29:55;7.57;;;2.10;;
42200;SDS011;27869;51.442;7.540;2022-07-23T14:32:24;9.18;;;2.20;;
42200;SDS011;27869;51.442;7.540;2022-07-23T14:37:18;8.02;;;2.38;;
42200;SDS011;27869;51.442;7.540;2022-07-23T14:39:46;6.82;;;2.33;;
42200;SDS011;27869;51.442;7.540;2022-07-23T14:42:13;9.90;;;2.20;;
42200;SDS011;27869;51.442;7.540;2022-07-23T14:44:40;9.63;;;2.03;;
42200;SDS011;27869;51.442;7.540;2022-07-23T14:47:08;8.40;;;2.60;;
42200;SDS011;27869;51.442;7.540;2022-07-23T14:49:36;10.00;;;2.42;;
42200;SDS011;27869;51.442;7.540;2022-07-23T14:52:04;7.53;;;2.28;;
42200;SDS011;27869;51.442;7.540;2022-07-23T14:54:32;6.93;;;2.25;;
42200;SDS011;27869;51.442;7.540;2022-07-23T14:56:59;8.00;;;2.35;;
42200;SDS011;27869;51.442;7.540;2022-07-23T14:59:28;6.40;;;2.22;;
42200;SDS011;27869;51.442;7.540;2022-07-23T15:01:56;9.38;;;2.28;;
42200;SDS011;27869;51.442;7.540;2022-07-23T15:04:24;8.10;;;2.20;;
42200;SDS011;27869;51.442;7.540;2022-07-23T15:06:52;9.35;;;2.25;;
42200;SDS011;27869;51.442;7.540;2022-07-23T15:09:19;6.88;;;2.50;;
42200;SDS011;27869;51.442;7.540;2022-07-23T15:11:46;6.30;;;2.20;;
42200;SDS011;27869;51.442;7.540;2022-07-23T15:14:13;8.95;;;2.20;;
42200;SDS011;27869;51.442;7.540;2022-07-23T15:16:40;9.05;;;2.60;;
42200;SDS011;27869;51.442;7.540;2022-07-23T15:19:07;8.52;;;2.13;;
42200;SDS011;27869;51.442;7.540;2022-07-23T15:21:34;7.32;;;2.20;;